sensor_id;sensor_type;location;lat;lon;timestamp;P1;durP1;ratioP1;P2;durP2;ratioP2
64643;SDS011;51056;50.330;7.914;2023-05-07T10:41:21;7.57;;;2.97;;
64643;SDS011;51056;50.330;7.914;2023-05-07T10:44:26;5.03;;;2.60;;
64643;SDS011;51056;50.330;7.914;2023-05-07T10:47:32;7.88;;;3.65;;
64643;SDS011;51056;50.330;7.914;2023-05-07T10:54:21;5.75;;;2.63;;
64643;SDS011;51056;50.330;7.914;2023-05-07T11:01:04;4.22;;;2.22;;
64643;SDS011;51056;50.330;7.914;2023-05-07T11:04:17;5.32;;;2.60;;
64643;SDS011;51056;50.330;7.914;2023-05-07T11:07:35;3.20;;;2.40;;
64643;SDS011;51056;50.330;7.914;2023-05-07T11:13:59;3.72;;;2.45;;
64643;SDS011;51056;50.330;7.914;2023-05-07T11:17:10;7.60;;;2.67;;
64643;SDS011;51056;50.330;7.914;2023-05-07T11:21:32;3.40;;;2.47;;
64643;SDS011;51056;50.330;7.914;2023-05-07T11:25:05;4.22;;;2.80;;
64643;SDS011;51056;50.330;7.914;2023-05-07T11:28:10;7.28;;;2.60;;
64643;SDS011;51056;50.330;7.914;2023-05-07T11:31:20;5.78;;;2.60;;
64643;SDS011;51056;50.330;7.914;2023-05-07T11:34:27;4.25;;;2.70;;
64643;SDS011;51056;50.330;7.914;2023-05-07T11:37:32;4.20;;;2.22;;
64643;SDS011;51056;50.330;7.914;2023-05-07T11:40:52;4.47;;;2.20;;
64643;SDS011;51056;50.330;7.914;2023-05-07T11:43:57;6.15;;;2.03;;
64643;SDS011;51056;50.330;7.914;2023-05-07T11:47:02;3.53;;;2.25;;
64643;SDS011;51056;50.330;7.914;2023-05-07T11:50:06;3.20;;;2.15;;
64643;SDS011;51056;50.330;7.914;2023-05-07T11:53:11;5.38;;;2.28;;
64643;SDS011;51056;50.330;7.914;2023-05-07T11:56:16;3.20;;;1.92;;
64643;SDS011;51056;50.330;7.914;2023-05-07T11:59:20;3.20;;;2.33;;
64643;SDS011;51056;50.330;7.914;2023-05-07T12:02:23;4.43;;;2.58;;
64643;SDS011;51056;50.330;7.914;2023-05-07T12:05:28;6.80;;;2.20;;
64643;SDS011;51056;50.330;7.914;2023-05-07T12:08:32;5.25;;;2.33;;
64643;SDS011;51056;50.330;7.914;2023-05-07T12:11:35;5.13;;;2.10;;
64643;SDS011;51056;50.330;7.914;2023-05-07T12:14:39;3.88;;;1.85;;
64643;SDS011;51056;50.330;7.914;2023-05-07T12:17:43;3.95;;;2.65;;
64643;SDS011;51056;50.330;7.914;2023-05-07T12:20:46;3.65;;;2.20;;
64643;SDS011;51056;50.330;7.914;2023-05-07T12:23:50;4.20;;;2.47;;
64643;SDS011;51056;50.330;7.914;2023-05-07T12:26:55;5.70;;;2.42;;
64643;SDS011;51056;50.330;7.914;2023-05-07T12:30:45;4.35;;;2.25;;
64643;SDS011;51056;50.330;7.914;2023-05-07T12:37:28;3.55;;;1.83;;
64643;SDS011;51056;50.330;7.914;2023-05-07T12:40:46;5.30;;;1.83;;
64643;SDS011;51056;50.330;7.914;2023-05-07T12:43:55;6.07;;;1.90;;
64643;SDS011;51056;50.330;7.914;2023-05-07T12:47:03;5.85;;;2.28;;
64643;SDS011;51056;50.330;7.914;2023-05-07T12:50:07;4.03;;;1.58;;
64643;SDS011;51056;50.330;7.914;2023-05-07T12:53:11;2.45;;;1.70;;
64643;SDS011;51056;50.330;7.914;2023-05-07T12:56:18;9.98;;;2.72;;
64643;SDS011;51056;50.330;7.914;2023-05-07T12:59:30;5.38;;;1.65;;
64643;SDS011;51056;50.330;7.914;2023-05-07T13:02:37;10.98;;;4.03;;
64643;SDS011;51056;50.330;7.914;2023-05-07T13:05:48;5.10;;;2.72;;
64643;SDS011;51056;50.330;7.914;2023-05-07T13:14:42;4.38;;;1.95;;
64643;SDS011;51056;50.330;7.914;2023-05-07T13:17:45;3.42;;;1.80;;
64643;SDS011;51056;50.330;7.914;2023-05-07T13:24:17;2.45;;;1.33;;
64643;SDS011;51056;50.330;7.914;2023-05-07T13:27:20;3.83;;;1.02;;
64643;SDS011;51056;50.330;7.914;2023-05-07T13:30:24;3.78;;;1.75;;
64643;SDS011;51056;50.330;7.914;2023-05-07T13:33:33;3.22;;;1.40;;
64643;SDS011;51056;50.330;7.914;2023-05-07T13:36:37;2.90;;;1.20;;
64643;SDS011;51056;50.330;7.914;2023-05-07T13:39:48;3.65;;;1.40;;
64643;SDS011;51056;50.330;7.914;2023-05-07T13:42:56;2.85;;;1.73;;
64643;SDS011;51056;50.330;7.914;2023-05-07T13:46:06;2.20;;;1.30;;
64643;SDS011;51056;50.330;7.914;2023-05-07T13:50:02;5.82;;;1.30;;
64643;SDS011;51056;50.330;7.914;2023-05-07T13:53:07;5.60;;;2.25;;
64643;SDS011;51056;50.330;7.914;2023-05-07T13:56:26;3.20;;;1.25;;
64643;SDS011;51056;50.330;7.914;2023-05-07T13:59:32;2.97;;;1.80;;
64643;SDS011;51056;50.330;7.914;2023-05-07T14:02:36;3.17;;;1.20;;
64643;SDS011;51056;50.330;7.914;2023-05-07T14:05:39;3.75;;;1.70;;
64643;SDS011;51056;50.330;7.914;2023-05-07T14:08:43;3.45;;;1.38;;
64643;SDS011;51056;50.330;7.914;2023-05-07T14:11:56;2.17;;;1.35;;
64643;SDS011;51056;50.330;7.914;2023-05-07T14:15:03;3.45;;;1.20;;
64643;SDS011;51056;50.330;7.914;2023-05-07T14:18:10;2.42;;;1.02;;
64643;SDS011;51056;50.330;7.914;2023-05-07T14:21:16;4.57;;;1.33;;
64643;SDS011;51056;50.330;7.914;2023-05-07T14:25:01;5.07;;;1.65;;
64643;SDS011;51056;50.330;7.914;2023-05-07T14:43:07;2.80;;;1.38;;
64643;SDS011;51056;50.330;7.914;2023-05-07T14:46:19;2.60;;;1.23;;
64643;SDS011;51056;50.330;7.914;2023-05-07T14:49:23;2.80;;;1.35;;
64643;SDS011;51056;50.330;7.914;2023-05-07T14:52:27;4.28;;;1.10;;
64643;SDS011;51056;50.330;7.914;2023-05-07T14:55:30;2.00;;;0.90;;
64643;SDS011;51056;50.330;7.914;2023-05-07T14:58:35;3.55;;;1.15;;
64643;SDS011;51056;50.330;7.914;2023-05-07T15:01:38;3.67;;;1.55;;
64643;SDS011;51056;50.330;7.914;2023-05-07T15:04:45;4.90;;;1.50;;
64643;SDS011;51056;50.330;7.914;2023-05-07T15:07:48;3.05;;;1.60;;
64643;SDS011;51056;50.330;7.914;2023-05-07T15:10:51;7.05;;;1.73;;
64643;SDS011;51056;50.330;7.914;2023-05-07T15:13:55;4.20;;;1.67;;
64643;SDS011;51056;50.330;7.914;2023-05-07T15:16:58;4.80;;;1.60;;
64643;SDS011;51056;50.330;7.914;2023-05-07T15:20:04;4.88;;;2.40;;
64643;SDS011;51056;50.330;7.914;2023-05-07T15:23:15;5.78;;;3.10;;
64643;SDS011;51056;50.330;7.914;2023-05-07T15:26:21;5.32;;;2.60;;
64643;SDS011;51056;50.330;7.914;2023-05-07T15:29:25;3.90;;;2.63;;
64643;SDS011;51056;50.330;7.914;2023-05-07T15:32:28;4.53;;;3.05;;
64643;SDS011;51056;50.330;7.914;2023-05-07T15:35:31;3.13;;;1.92;;
64643;SDS011;51056;50.330;7.914;2023-05-07T15:38:35;8.60;;;3.35;;
64643;SDS011;51056;50.330;7.914;2023-05-07T15:41:38;3.20;;;1.23;;
64643;SDS011;51056;50.330;7.914;2023-05-07T15:44:42;2.65;;;1.42;;
64643;SDS011;51056;50.330;7.914;2023-05-07T15:47:45;3.08;;;1.58;;
64643;SDS011;51056;50.330;7.914;2023-05-07T15:50:49;2.35;;;1.38;;
64643;SDS011;51056;50.330;7.914;2023-05-07T15:53:52;2.63;;;1.58;;
64643;SDS011;51056;50.330;7.914;2023-05-07T15:56:55;2.97;;;1.60;;
64643;SDS011;51056;50.330;7.914;2023-05-07T15:59:59;3.55;;;1.65;;
64643;SDS011;51056;50.330;7.914;2023-05-07T16:03:02;3.38;;;1.75;;
64643;SDS011;51056;50.330;7.914;2023-05-07T16:06:05;3.30;;;1.50;;
64643;SDS011;51056;50.330;7.914;2023-05-07T16:09:09;3.28;;;2.20;;
64643;SDS011;51056;50.330;7.914;2023-05-07T16:12:13;3.03;;;1.88;;
64643;SDS011;51056;50.330;7.914;2023-05-07T16:15:16;4.10;;;1.52;;
64643;SDS011;51056;50.330;7.914;2023-05-07T16:18:19;3.95;;;1.40;;
64643;SDS011;51056;50.330;7.914;2023-05-07T16:21:30;5.75;;;2.13;;
64643;SDS011;51056;50.330;7.914;2023-05-07T16:24:34;7.88;;;2.45;;
64643;SDS011;51056;50.330;7.914;2023-05-07T16:27:37;4.15;;;1.95;;
64643;SDS011;51056;50.330;7.914;2023-05-07T16:30:42;4.32;;;2.08;;
64643;SDS011;51056;50.330;7.914;2023-05-07T16:33:46;4.65;;;1.73;;
64643;SDS011;51056;50.330;7.914;2023-05-07T16:36:49;5.68;;;2.10;;
64643;SDS011;51056;50.330;7.914;2023-05-07T16:39:53;3.53;;;2.00;;
64643;SDS011;51056;50.330;7.914;2023-05-07T16:43:02;6.75;;;2.08;;
64643;SDS011;51056;50.330;7.914;2023-05-07T16:46:07;4.07;;;2.40;;
64643;SDS011;51056;50.330;7.914;2023-05-07T16:49:10;3.78;;;1.92;;
64643;SDS011;51056;50.330;7.914;2023-05-07T16:52:23;3.15;;;2.03;;
64643;SDS011;51056;50.330;7.914;2023-05-07T16:56:06;5.68;;;2.17;;
64643;SDS011;51056;50.330;7.914;2023-05-07T16:59:09;5.78;;;3.75;;
64643;SDS011;51056;50.330;7.914;2023-05-07T17:02:12;5.55;;;3.92;;
64643;SDS011;51056;50.330;7.914;2023-05-07T17:05:16;4.15;;;2.10;;
64643;SDS011;51056;50.330;7.914;2023-05-07T17:08:19;5.93;;;1.85;;
64643;SDS011;51056;50.330;7.914;2023-05-07T17:11:22;2.85;;;1.85;;
64643;SDS011;51056;50.330;7.914;2023-05-07T17:14:26;3.53;;;2.10;;
64643;SDS011;51056;50.330;7.914;2023-05-07T17:17:29;4.28;;;2.10;;
64643;SDS011;51056;50.330;7.914;2023-05-07T17:20:34;4.35;;;1.90;;
64643;SDS011;51056;50.330;7.914;2023-05-07T17:23:38;5.38;;;2.20;;
64643;SDS011;51056;50.330;7.914;2023-05-07T17:26:41;4.10;;;1.45;;
64643;SDS011;51056;50.330;7.914;2023-05-07T17:29:44;5.30;;;2.30;;
64643;SDS011;51056;50.330;7.914;2023-05-07T17:32:48;2.47;;;1.40;;
64643;SDS011;51056;50.330;7.914;2023-05-07T17:35:51;3.95;;;1.10;;
64643;SDS011;51056;50.330;7.914;2023-05-07T17:38:54;4.30;;;1.15;;
64643;SDS011;51056;50.330;7.914;2023-05-07T17:41:58;3.95;;;1.50;;
64643;SDS011;51056;50.330;7.914;2023-05-07T17:45:01;13.20;;;2.95;;
64643;SDS011;51056;50.330;7.914;2023-05-07T17:48:05;9.10;;;3.55;;
64643;SDS011;51056;50.330;7.914;2023-05-07T17:51:09;11.50;;;4.38;;
64643;SDS011;51056;50.330;7.914;2023-05-07T17:54:12;12.27;;;4.20;;
64643;SDS011;51056;50.330;7.914;2023-05-07T17:57:15;8.95;;;3.13;;
64643;SDS011;51056;50.330;7.914;2023-05-07T18:00:19;10.60;;;3.20;;
64643;SDS011;51056;50.330;7.914;2023-05-07T18:03:22;6.05;;;2.67;;
64643;SDS011;51056;50.330;7.914;2023-05-07T18:06:26;8.88;;;2.83;;
64643;SDS011;51056;50.330;7.914;2023-05-07T18:09:29;16.13;;;3.78;;
64643;SDS011;51056;50.330;7.914;2023-05-07T18:12:33;7.03;;;1.95;;
64643;SDS011;51056;50.330;7.914;2023-05-07T18:15:37;6.43;;;3.20;;
64643;SDS011;51056;50.330;7.914;2023-05-07T18:18:40;5.57;;;2.60;;
64643;SDS011;51056;50.330;7.914;2023-05-07T18:21:43;6.32;;;2.72;;
64643;SDS011;51056;50.330;7.914;2023-05-07T18:24:48;10.20;;;2.92;;
64643;SDS011;51056;50.330;7.914;2023-05-07T18:27:51;14.90;;;3.10;;
64643;SDS011;51056;50.330;7.914;2023-05-07T18:30:56;14.70;;;2.67;;
64643;SDS011;51056;50.330;7.914;2023-05-07T18:33:59;6.38;;;2.40;;
64643;SDS011;51056;50.330;7.914;2023-05-07T18:37:02;13.27;;;2.75;;
64643;SDS011;51056;50.330;7.914;2023-05-07T18:40:06;8.38;;;3.00;;
64643;SDS011;51056;50.330;7.914;2023-05-07T18:43:10;7.88;;;2.10;;
64643;SDS011;51056;50.330;7.914;2023-05-07T18:46:13;11.15;;;2.88;;
64643;SDS011;51056;50.330;7.914;2023-05-07T18:49:18;8.27;;;2.65;;
64643;SDS011;51056;50.330;7.914;2023-05-07T18:52:23;13.55;;;2.53;;
64643;SDS011;51056;50.330;7.914;2023-05-07T18:55:27;6.85;;;2.85;;
64643;SDS011;51056;50.330;7.914;2023-05-07T18:58:31;10.85;;;2.30;;
64643;SDS011;51056;50.330;7.914;2023-05-07T19:01:36;5.45;;;1.88;;
64643;SDS011;51056;50.330;7.914;2023-05-07T19:04:40;12.68;;;2.58;;
64643;SDS011;51056;50.330;7.914;2023-05-07T19:07:43;12.93;;;2.58;;
64643;SDS011;51056;50.330;7.914;2023-05-07T19:10:48;8.50;;;2.50;;
64643;SDS011;51056;50.330;7.914;2023-05-07T19:13:51;9.07;;;2.42;;
64643;SDS011;51056;50.330;7.914;2023-05-07T19:16:55;5.13;;;2.22;;
64643;SDS011;51056;50.330;7.914;2023-05-07T19:19:58;7.03;;;2.28;;
64643;SDS011;51056;50.330;7.914;2023-05-07T19:23:01;9.63;;;3.05;;
64643;SDS011;51056;50.330;7.914;2023-05-07T19:26:05;12.45;;;2.30;;
64643;SDS011;51056;50.330;7.914;2023-05-07T19:29:08;8.18;;;2.60;;
64643;SDS011;51056;50.330;7.914;2023-05-07T19:32:11;5.45;;;2.05;;
64643;SDS011;51056;50.330;7.914;2023-05-07T19:35:15;10.32;;;2.65;;
64643;SDS011;51056;50.330;7.914;2023-05-07T19:38:18;10.57;;;2.50;;
64643;SDS011;51056;50.330;7.914;2023-05-07T19:41:22;5.40;;;2.25;;
64643;SDS011;51056;50.330;7.914;2023-05-07T19:44:25;9.55;;;2.33;;
64643;SDS011;51056;50.330;7.914;2023-05-07T19:47:28;8.20;;;2.63;;
64643;SDS011;51056;50.330;7.914;2023-05-07T19:50:31;5.82;;;2.33;;
64643;SDS011;51056;50.330;7.914;2023-05-07T19:53:35;8.60;;;2.00;;
64643;SDS011;51056;50.330;7.914;2023-05-07T19:56:39;10.40;;;2.25;;
64643;SDS011;51056;50.330;7.914;2023-05-07T19:59:45;13.27;;;2.50;;
64643;SDS011;51056;50.330;7.914;2023-05-07T20:02:50;5.75;;;2.10;;
64643;SDS011;51056;50.330;7.914;2023-05-07T20:05:54;16.25;;;2.70;;
64643;SDS011;51056;50.330;7.914;2023-05-07T20:08:57;9.30;;;2.55;;
64643;SDS011;51056;50.330;7.914;2023-05-07T20:12:00;14.30;;;2.80;;
64643;SDS011;51056;50.330;7.914;2023-05-07T20:15:06;7.03;;;2.65;;
64643;SDS011;51056;50.330;7.914;2023-05-07T20:18:09;7.90;;;2.80;;
64643;SDS011;51056;50.330;7.914;2023-05-07T20:21:13;6.72;;;2.38;;
64643;SDS011;51056;50.330;7.914;2023-05-07T20:24:16;10.40;;;2.75;;
64643;SDS011;51056;50.330;7.914;2023-05-07T20:27:20;10.75;;;2.70;;
64643;SDS011;51056;50.330;7.914;2023-05-07T20:30:26;9.57;;;2.05;;
64643;SDS011;51056;50.330;7.914;2023-05-07T20:33:30;6.80;;;2.33;;
64643;SDS011;51056;50.330;7.914;2023-05-07T20:36:33;9.32;;;2.45;;
64643;SDS011;51056;50.330;7.914;2023-05-07T20:39:37;10.95;;;2.22;;
64643;SDS011;51056;50.330;7.914;2023-05-07T20:42:41;12.35;;;3.05;;
64643;SDS011;51056;50.330;7.914;2023-05-07T20:45:44;12.32;;;2.85;;
64643;SDS011;51056;50.330;7.914;2023-05-07T20:48:47;5.55;;;1.90;;
64643;SDS011;51056;50.330;7.914;2023-05-07T20:51:52;3.95;;;2.05;;
64643;SDS011;51056;50.330;7.914;2023-05-07T20:54:55;9.27;;;2.40;;
64643;SDS011;51056;50.330;7.914;2023-05-07T20:57:58;6.65;;;2.22;;
64643;SDS011;51056;50.330;7.914;2023-05-07T21:01:02;6.97;;;2.28;;
64643;SDS011;51056;50.330;7.914;2023-05-07T21:04:05;11.43;;;2.63;;
64643;SDS011;51056;50.330;7.914;2023-05-07T21:07:09;7.57;;;2.72;;
64643;SDS011;51056;50.330;7.914;2023-05-07T21:10:13;9.25;;;2.83;;
64643;SDS011;51056;50.330;7.914;2023-05-07T21:13:16;8.80;;;2.45;;
64643;SDS011;51056;50.330;7.914;2023-05-07T21:16:20;10.18;;;2.47;;
64643;SDS011;51056;50.330;7.914;2023-05-07T21:19:24;6.82;;;2.50;;
64643;SDS011;51056;50.330;7.914;2023-05-07T21:22:28;7.38;;;2.60;;
64643;SDS011;51056;50.330;7.914;2023-05-07T21:25:32;12.48;;;3.42;;
64643;SDS011;51056;50.330;7.914;2023-05-07T21:28:39;4.53;;;2.20;;
64643;SDS011;51056;50.330;7.914;2023-05-07T21:31:42;10.48;;;2.50;;
64643;SDS011;51056;50.330;7.914;2023-05-07T21:34:45;7.13;;;2.90;;
64643;SDS011;51056;50.330;7.914;2023-05-07T21:37:49;5.75;;;2.85;;
64643;SDS011;51056;50.330;7.914;2023-05-07T21:40:53;9.18;;;2.55;;
64643;SDS011;51056;50.330;7.914;2023-05-07T21:43:56;14.90;;;2.70;;
64643;SDS011;51056;50.330;7.914;2023-05-07T21:46:59;21.90;;;3.75;;
64643;SDS011;51056;50.330;7.914;2023-05-07T21:50:03;8.13;;;2.60;;
64643;SDS011;51056;50.330;7.914;2023-05-07T21:53:07;6.43;;;3.65;;
64643;SDS011;51056;50.330;7.914;2023-05-07T21:56:10;8.02;;;2.50;;
64643;SDS011;51056;50.330;7.914;2023-05-07T21:59:13;6.20;;;2.60;;
64643;SDS011;51056;50.330;7.914;2023-05-07T22:02:17;11.38;;;3.85;;
64643;SDS011;51056;50.330;7.914;2023-05-07T22:05:20;5.65;;;2.42;;
64643;SDS011;51056;50.330;7.914;2023-05-07T22:08:23;6.18;;;2.78;;
64643;SDS011;51056;50.330;7.914;2023-05-07T22:11:27;9.15;;;3.85;;
64643;SDS011;51056;50.330;7.914;2023-05-07T22:14:31;11.90;;;3.80;;
64643;SDS011;51056;50.330;7.914;2023-05-07T22:17:34;7.25;;;2.80;;
64643;SDS011;51056;50.330;7.914;2023-05-07T22:20:38;5.35;;;3.00;;
64643;SDS011;51056;50.330;7.914;2023-05-07T22:23:41;6.40;;;3.40;;
64643;SDS011;51056;50.330;7.914;2023-05-07T22:26:44;8.55;;;3.47;;
64643;SDS011;51056;50.330;7.914;2023-05-07T22:29:48;8.43;;;4.07;;
64643;SDS011;51056;50.330;7.914;2023-05-07T22:32:51;4.75;;;3.30;;
64643;SDS011;51056;50.330;7.914;2023-05-07T22:35:54;6.75;;;4.20;;
64643;SDS011;51056;50.330;7.914;2023-05-07T22:39:00;7.57;;;3.78;;
64643;SDS011;51056;50.330;7.914;2023-05-07T22:42:06;6.57;;;4.65;;
64643;SDS011;51056;50.330;7.914;2023-05-07T22:45:11;6.95;;;5.20;;
64643;SDS011;51056;50.330;7.914;2023-05-07T22:48:14;8.13;;;5.57;;
64643;SDS011;51056;50.330;7.914;2023-05-07T22:51:17;7.90;;;5.82;;
64643;SDS011;51056;50.330;7.914;2023-05-07T22:54:20;7.60;;;5.85;;
64643;SDS011;51056;50.330;7.914;2023-05-07T22:57:24;9.20;;;6.50;;
64643;SDS011;51056;50.330;7.914;2023-05-07T23:00:27;10.80;;;6.63;;
64643;SDS011;51056;50.330;7.914;2023-05-07T23:03:31;10.30;;;6.45;;
64643;SDS011;51056;50.330;7.914;2023-05-07T23:06:34;9.07;;;6.25;;
64643;SDS011;51056;50.330;7.914;2023-05-07T23:09:38;10.23;;;6.88;;
64643;SDS011;51056;50.330;7.914;2023-05-07T23:12:41;8.93;;;6.53;;
64643;SDS011;51056;50.330;7.914;2023-05-07T23:15:45;10.32;;;7.63;;
64643;SDS011;51056;50.330;7.914;2023-05-07T23:18:49;11.35;;;7.75;;
64643;SDS011;51056;50.330;7.914;2023-05-07T23:21:52;7.90;;;7.10;;
64643;SDS011;51056;50.330;7.914;2023-05-07T23:24:55;8.75;;;7.88;;
64643;SDS011;51056;50.330;7.914;2023-05-07T23:27:59;8.45;;;7.55;;
64643;SDS011;51056;50.330;7.914;2023-05-07T23:31:05;10.98;;;7.95;;
64643;SDS011;51056;50.330;7.914;2023-05-07T23:34:09;8.48;;;7.57;;
64643;SDS011;51056;50.330;7.914;2023-05-07T23:37:13;9.75;;;7.22;;
64643;SDS011;51056;50.330;7.914;2023-05-07T23:40:16;14.35;;;7.80;;
64643;SDS011;51056;50.330;7.914;2023-05-07T23:43:20;10.73;;;8.15;;
64643;SDS011;51056;50.330;7.914;2023-05-07T23:46:23;10.07;;;7.13;;
64643;SDS011;51056;50.330;7.914;2023-05-07T23:49:26;10.73;;;8.02;;
64643;SDS011;51056;50.330;7.914;2023-05-07T23:52:30;22.13;;;7.93;;
64643;SDS011;51056;50.330;7.914;2023-05-07T23:55:33;8.73;;;7.78;;
64643;SDS011;51056;50.330;7.914;2023-05-07T23:58:39;9.88;;;8.02;;
